sensor_id;sensor_type;location;lat;lon;timestamp;temperature;humidity
16412;DHT22;8315;52.104;6.304;2022-11-15T00:00:12;8.40;98.40
16412;DHT22;8315;52.104;6.304;2022-11-15T00:02:57;8.40;98.40
16412;DHT22;8315;52.104;6.304;2022-11-15T00:05:43;8.30;98.40
16412;DHT22;8315;52.104;6.304;2022-11-15T00:08:29;8.30;98.40
16412;DHT22;8315;52.104;6.304;2022-11-15T00:11:15;8.30;98.40
16412;DHT22;8315;52.104;6.304;2022-11-15T00:14:00;8.30;98.40
16412;DHT22;8315;52.104;6.304;2022-11-15T00:16:48;8.30;98.40
16412;DHT22;8315;52.104;6.304;2022-11-15T00:19:33;8.40;98.40
16412;DHT22;8315;52.104;6.304;2022-11-15T00:22:19;8.40;98.40
16412;DHT22;8315;52.104;6.304;2022-11-15T00:25:05;8.50;98.40
16412;DHT22;8315;52.104;6.304;2022-11-15T00:27:54;8.50;98.40
16412;DHT22;8315;52.104;6.304;2022-11-15T00:30:40;8.60;98.40
16412;DHT22;8315;52.104;6.304;2022-11-15T00:33:26;8.50;98.40
16412;DHT22;8315;52.104;6.304;2022-11-15T00:36:12;8.50;98.40
16412;DHT22;8315;52.104;6.304;2022-11-15T00:38:57;8.50;98.40
16412;DHT22;8315;52.104;6.304;2022-11-15T00:41:42;8.60;98.40
16412;DHT22;8315;52.104;6.304;2022-11-15T00:44:28;8.60;98.40
16412;DHT22;8315;52.104;6.304;2022-11-15T00:47:13;8.60;98.40
16412;DHT22;8315;52.104;6.304;2022-11-15T00:50:00;8.50;98.40
16412;DHT22;8315;52.104;6.304;2022-11-15T00:52:46;8.50;98.40
16412;DHT22;8315;52.104;6.304;2022-11-15T00:55:31;8.60;98.40
16412;DHT22;8315;52.104;6.304;2022-11-15T00:58:17;8.70;98.40
16412;DHT22;8315;52.104;6.304;2022-11-15T01:01:06;8.60;98.40
16412;DHT22;8315;52.104;6.304;2022-11-15T01:03:52;8.60;98.40
16412;DHT22;8315;52.104;6.304;2022-11-15T01:06:39;8.80;98.40
16412;DHT22;8315;52.104;6.304;2022-11-15T01:09:24;8.80;98.40
16412;DHT22;8315;52.104;6.304;2022-11-15T01:12:09;8.80;98.40
16412;DHT22;8315;52.104;6.304;2022-11-15T01:14:54;8.90;98.40
16412;DHT22;8315;52.104;6.304;2022-11-15T01:17:40;8.80;98.40
16412;DHT22;8315;52.104;6.304;2022-11-15T01:20:26;8.90;98.40
16412;DHT22;8315;52.104;6.304;2022-11-15T01:23:12;8.80;98.40
16412;DHT22;8315;52.104;6.304;2022-11-15T01:25:58;8.80;98.40
16412;DHT22;8315;52.104;6.304;2022-11-15T01:28:44;8.90;98.40
16412;DHT22;8315;52.104;6.304;2022-11-15T01:31:29;8.90;98.40
16412;DHT22;8315;52.104;6.304;2022-11-15T01:34:15;8.90;98.40
16412;DHT22;8315;52.104;6.304;2022-11-15T01:37:00;9.00;98.40
16412;DHT22;8315;52.104;6.304;2022-11-15T01:39:47;9.00;98.40
16412;DHT22;8315;52.104;6.304;2022-11-15T01:42:33;9.00;98.40
16412;DHT22;8315;52.104;6.304;2022-11-15T01:45:18;9.00;98.40
16412;DHT22;8315;52.104;6.304;2022-11-15T01:48:04;9.00;98.40
16412;DHT22;8315;52.104;6.304;2022-11-15T01:50:52;9.00;98.40
16412;DHT22;8315;52.104;6.304;2022-11-15T01:53:38;9.00;98.40
16412;DHT22;8315;52.104;6.304;2022-11-15T01:56:25;9.00;98.40
16412;DHT22;8315;52.104;6.304;2022-11-15T01:59:12;9.00;98.40
16412;DHT22;8315;52.104;6.304;2022-11-15T02:01:58;9.00;98.40
16412;DHT22;8315;52.104;6.304;2022-11-15T02:04:45;9.10;98.40
16412;DHT22;8315;52.104;6.304;2022-11-15T02:07:32;9.10;98.40
16412;DHT22;8315;52.104;6.304;2022-11-15T02:10:19;9.20;98.40
16412;DHT22;8315;52.104;6.304;2022-11-15T02:13:08;9.20;98.40
16412;DHT22;8315;52.104;6.304;2022-11-15T02:15:56;9.30;98.40
16412;DHT22;8315;52.104;6.304;2022-11-15T02:18:46;9.20;98.40
16412;DHT22;8315;52.104;6.304;2022-11-15T02:21:35;9.30;98.40
16412;DHT22;8315;52.104;6.304;2022-11-15T02:24:33;9.30;98.40
16412;DHT22;8315;52.104;6.304;2022-11-15T02:30:39;9.40;98.40
16412;DHT22;8315;52.104;6.304;2022-11-15T02:33:28;9.40;98.40
16412;DHT22;8315;52.104;6.304;2022-11-15T02:36:21;9.40;98.40
16412;DHT22;8315;52.104;6.304;2022-11-15T02:39:15;9.50;98.40
16412;DHT22;8315;52.104;6.304;2022-11-15T02:42:06;9.50;98.40
16412;DHT22;8315;52.104;6.304;2022-11-15T02:45:13;9.50;98.40
16412;DHT22;8315;52.104;6.304;2022-11-15T02:48:02;9.50;98.40
16412;DHT22;8315;52.104;6.304;2022-11-15T02:50:49;9.50;98.40
16412;DHT22;8315;52.104;6.304;2022-11-15T02:53:34;9.60;98.40
16412;DHT22;8315;52.104;6.304;2022-11-15T02:56:20;9.60;98.40
16412;DHT22;8315;52.104;6.304;2022-11-15T02:59:09;9.70;98.40
16412;DHT22;8315;52.104;6.304;2022-11-15T03:02:04;9.70;98.40
16412;DHT22;8315;52.104;6.304;2022-11-15T03:05:00;9.70;98.40
16412;DHT22;8315;52.104;6.304;2022-11-15T03:07:51;9.80;98.40
16412;DHT22;8315;52.104;6.304;2022-11-15T03:10:41;9.80;98.40
16412;DHT22;8315;52.104;6.304;2022-11-15T03:13:30;9.80;98.40
16412;DHT22;8315;52.104;6.304;2022-11-15T03:16:19;9.80;98.40
16412;DHT22;8315;52.104;6.304;2022-11-15T03:19:10;9.80;98.40
16412;DHT22;8315;52.104;6.304;2022-11-15T03:21:59;9.80;98.40
16412;DHT22;8315;52.104;6.304;2022-11-15T03:24:50;9.80;98.40
16412;DHT22;8315;52.104;6.304;2022-11-15T03:27:39;9.80;98.40
16412;DHT22;8315;52.104;6.304;2022-11-15T03:30:28;9.90;98.40
16412;DHT22;8315;52.104;6.304;2022-11-15T03:33:15;9.90;98.40
16412;DHT22;8315;52.104;6.304;2022-11-15T03:36:01;10.00;98.40
16412;DHT22;8315;52.104;6.304;2022-11-15T03:38:48;10.00;98.40
16412;DHT22;8315;52.104;6.304;2022-11-15T03:41:35;10.00;98.40
16412;DHT22;8315;52.104;6.304;2022-11-15T03:44:26;10.10;98.40
16412;DHT22;8315;52.104;6.304;2022-11-15T03:47:17;10.10;98.40
16412;DHT22;8315;52.104;6.304;2022-11-15T03:50:07;10.10;98.40
16412;DHT22;8315;52.104;6.304;2022-11-15T03:52:54;10.20;98.40
16412;DHT22;8315;52.104;6.304;2022-11-15T03:55:41;10.20;98.40
16412;DHT22;8315;52.104;6.304;2022-11-15T03:58:26;10.20;98.40
16412;DHT22;8315;52.104;6.304;2022-11-15T04:01:12;10.20;98.40
16412;DHT22;8315;52.104;6.304;2022-11-15T04:03:57;10.20;98.40
16412;DHT22;8315;52.104;6.304;2022-11-15T04:06:43;10.10;98.40
16412;DHT22;8315;52.104;6.304;2022-11-15T04:09:28;10.20;98.40
16412;DHT22;8315;52.104;6.304;2022-11-15T04:12:15;10.20;98.40
16412;DHT22;8315;52.104;6.304;2022-11-15T04:15:14;10.30;98.40
16412;DHT22;8315;52.104;6.304;2022-11-15T04:18:01;10.30;98.40
16412;DHT22;8315;52.104;6.304;2022-11-15T04:20:46;10.40;98.40
16412;DHT22;8315;52.104;6.304;2022-11-15T04:23:49;10.30;98.40
16412;DHT22;8315;52.104;6.304;2022-11-15T04:26:49;10.40;98.40
16412;DHT22;8315;52.104;6.304;2022-11-15T04:29:36;10.50;98.40
16412;DHT22;8315;52.104;6.304;2022-11-15T04:32:21;10.50;98.40
16412;DHT22;8315;52.104;6.304;2022-11-15T04:35:06;10.50;98.40
16412;DHT22;8315;52.104;6.304;2022-11-15T04:37:52;10.60;98.40
16412;DHT22;8315;52.104;6.304;2022-11-15T04:40:38;10.50;98.40
16412;DHT22;8315;52.104;6.304;2022-11-15T04:43:24;10.60;98.40
16412;DHT22;8315;52.104;6.304;2022-11-15T04:46:10;10.60;98.40
16412;DHT22;8315;52.104;6.304;2022-11-15T04:48:56;10.70;98.40
16412;DHT22;8315;52.104;6.304;2022-11-15T04:51:41;10.70;98.40
16412;DHT22;8315;52.104;6.304;2022-11-15T04:54:27;10.70;98.40
16412;DHT22;8315;52.104;6.304;2022-11-15T04:57:12;10.70;98.40
16412;DHT22;8315;52.104;6.304;2022-11-15T04:59:58;10.70;98.40
16412;DHT22;8315;52.104;6.304;2022-11-15T05:02:45;10.70;98.40
16412;DHT22;8315;52.104;6.304;2022-11-15T05:05:48;10.80;98.40
16412;DHT22;8315;52.104;6.304;2022-11-15T05:08:33;10.80;98.40
16412;DHT22;8315;52.104;6.304;2022-11-15T05:11:18;10.80;98.40
16412;DHT22;8315;52.104;6.304;2022-11-15T05:14:04;10.80;98.40
16412;DHT22;8315;52.104;6.304;2022-11-15T05:16:49;10.90;98.40
16412;DHT22;8315;52.104;6.304;2022-11-15T05:19:36;10.90;98.40
16412;DHT22;8315;52.104;6.304;2022-11-15T05:22:22;10.90;98.40
16412;DHT22;8315;52.104;6.304;2022-11-15T05:25:07;10.90;98.40
16412;DHT22;8315;52.104;6.304;2022-11-15T05:27:53;11.00;98.40
16412;DHT22;8315;52.104;6.304;2022-11-15T05:30:38;11.00;98.40
16412;DHT22;8315;52.104;6.304;2022-11-15T05:33:24;11.10;98.40
16412;DHT22;8315;52.104;6.304;2022-11-15T05:36:12;11.10;98.40
16412;DHT22;8315;52.104;6.304;2022-11-15T05:39:00;11.10;98.40
16412;DHT22;8315;52.104;6.304;2022-11-15T05:41:47;11.20;98.40
16412;DHT22;8315;52.104;6.304;2022-11-15T05:44:35;11.20;98.40
16412;DHT22;8315;52.104;6.304;2022-11-15T05:47:22;11.20;98.40
16412;DHT22;8315;52.104;6.304;2022-11-15T05:50:10;11.20;98.40
16412;DHT22;8315;52.104;6.304;2022-11-15T05:52:58;11.20;98.40
16412;DHT22;8315;52.104;6.304;2022-11-15T05:55:44;11.20;98.40
16412;DHT22;8315;52.104;6.304;2022-11-15T05:58:30;11.30;98.40
16412;DHT22;8315;52.104;6.304;2022-11-15T06:01:16;11.30;98.40
16412;DHT22;8315;52.104;6.304;2022-11-15T06:04:01;11.30;98.40
16412;DHT22;8315;52.104;6.304;2022-11-15T06:06:46;11.30;98.40
16412;DHT22;8315;52.104;6.304;2022-11-15T06:09:33;11.30;98.40
16412;DHT22;8315;52.104;6.304;2022-11-15T06:12:19;11.30;98.40
16412;DHT22;8315;52.104;6.304;2022-11-15T06:15:04;11.40;98.40
16412;DHT22;8315;52.104;6.304;2022-11-15T06:17:50;11.40;98.40
16412;DHT22;8315;52.104;6.304;2022-11-15T06:20:36;11.40;98.40
16412;DHT22;8315;52.104;6.304;2022-11-15T06:23:21;11.40;98.40
16412;DHT22;8315;52.104;6.304;2022-11-15T06:26:08;11.40;98.40
16412;DHT22;8315;52.104;6.304;2022-11-15T06:28:54;11.40;98.40
16412;DHT22;8315;52.104;6.304;2022-11-15T06:31:40;11.40;98.40
16412;DHT22;8315;52.104;6.304;2022-11-15T06:34:25;11.50;98.40
16412;DHT22;8315;52.104;6.304;2022-11-15T06:37:11;11.50;98.40
16412;DHT22;8315;52.104;6.304;2022-11-15T06:39:56;11.50;98.40
16412;DHT22;8315;52.104;6.304;2022-11-15T06:42:43;11.50;98.40
16412;DHT22;8315;52.104;6.304;2022-11-15T06:45:29;11.50;98.40
16412;DHT22;8315;52.104;6.304;2022-11-15T06:48:14;11.50;98.40
16412;DHT22;8315;52.104;6.304;2022-11-15T06:51:00;11.50;98.40
16412;DHT22;8315;52.104;6.304;2022-11-15T06:53:46;11.50;98.40
16412;DHT22;8315;52.104;6.304;2022-11-15T06:56:33;11.50;98.40
16412;DHT22;8315;52.104;6.304;2022-11-15T06:59:20;11.50;98.40
16412;DHT22;8315;52.104;6.304;2022-11-15T07:02:05;11.60;98.40
16412;DHT22;8315;52.104;6.304;2022-11-15T07:04:51;11.60;98.40
16412;DHT22;8315;52.104;6.304;2022-11-15T07:07:36;11.60;98.40
16412;DHT22;8315;52.104;6.304;2022-11-15T07:10:22;11.60;98.40
16412;DHT22;8315;52.104;6.304;2022-11-15T07:13:08;11.60;98.40
16412;DHT22;8315;52.104;6.304;2022-11-15T07:15:55;11.60;98.40
16412;DHT22;8315;52.104;6.304;2022-11-15T07:18:40;11.60;98.40
16412;DHT22;8315;52.104;6.304;2022-11-15T07:21:26;11.70;98.40
16412;DHT22;8315;52.104;6.304;2022-11-15T07:24:11;11.70;98.40
16412;DHT22;8315;52.104;6.304;2022-11-15T07:26:57;11.60;98.40
16412;DHT22;8315;52.104;6.304;2022-11-15T07:29:42;11.60;98.40
16412;DHT22;8315;52.104;6.304;2022-11-15T07:32:28;11.70;98.40
16412;DHT22;8315;52.104;6.304;2022-11-15T07:35:14;11.70;98.40
16412;DHT22;8315;52.104;6.304;2022-11-15T07:38:00;11.70;98.40
16412;DHT22;8315;52.104;6.304;2022-11-15T07:40:46;11.70;98.40
16412;DHT22;8315;52.104;6.304;2022-11-15T07:43:32;11.70;98.40
16412;DHT22;8315;52.104;6.304;2022-11-15T07:46:18;11.70;98.40
16412;DHT22;8315;52.104;6.304;2022-11-15T07:49:05;11.70;98.40
16412;DHT22;8315;52.104;6.304;2022-11-15T07:51:50;11.70;98.40
16412;DHT22;8315;52.104;6.304;2022-11-15T07:54:36;11.70;98.40
16412;DHT22;8315;52.104;6.304;2022-11-15T07:57:21;11.80;98.40
16412;DHT22;8315;52.104;6.304;2022-11-15T08:00:07;11.70;98.40
16412;DHT22;8315;52.104;6.304;2022-11-15T08:03:00;11.70;98.40
16412;DHT22;8315;52.104;6.304;2022-11-15T08:05:50;11.80;98.40
16412;DHT22;8315;52.104;6.304;2022-11-15T08:08:36;11.80;98.40
16412;DHT22;8315;52.104;6.304;2022-11-15T08:11:21;11.80;98.40
16412;DHT22;8315;52.104;6.304;2022-11-15T08:14:07;11.80;98.40
16412;DHT22;8315;52.104;6.304;2022-11-15T08:16:52;11.80;98.40
16412;DHT22;8315;52.104;6.304;2022-11-15T08:19:39;11.80;98.40
16412;DHT22;8315;52.104;6.304;2022-11-15T08:22:26;11.90;98.40
16412;DHT22;8315;52.104;6.304;2022-11-15T08:25:11;11.90;98.40
16412;DHT22;8315;52.104;6.304;2022-11-15T08:27:57;11.80;98.40
16412;DHT22;8315;52.104;6.304;2022-11-15T08:30:44;11.80;98.40
16412;DHT22;8315;52.104;6.304;2022-11-15T08:33:29;11.80;98.40
16412;DHT22;8315;52.104;6.304;2022-11-15T08:36:16;11.80;98.40
16412;DHT22;8315;52.104;6.304;2022-11-15T08:39:03;11.80;98.40
16412;DHT22;8315;52.104;6.304;2022-11-15T08:41:49;11.70;98.40
16412;DHT22;8315;52.104;6.304;2022-11-15T08:44:35;11.80;98.40
16412;DHT22;8315;52.104;6.304;2022-11-15T08:47:21;11.80;98.40
16412;DHT22;8315;52.104;6.304;2022-11-15T08:50:07;11.80;98.40
16412;DHT22;8315;52.104;6.304;2022-11-15T08:52:52;11.80;98.40
16412;DHT22;8315;52.104;6.304;2022-11-15T08:55:40;11.80;98.40
16412;DHT22;8315;52.104;6.304;2022-11-15T08:58:25;11.90;98.40
16412;DHT22;8315;52.104;6.304;2022-11-15T09:01:15;11.90;98.40
16412;DHT22;8315;52.104;6.304;2022-11-15T09:04:01;11.90;98.40
16412;DHT22;8315;52.104;6.304;2022-11-15T09:06:48;11.90;98.40
16412;DHT22;8315;52.104;6.304;2022-11-15T09:09:33;12.00;98.40
16412;DHT22;8315;52.104;6.304;2022-11-15T09:12:20;12.00;98.40
16412;DHT22;8315;52.104;6.304;2022-11-15T09:15:06;12.00;98.40
16412;DHT22;8315;52.104;6.304;2022-11-15T09:17:52;12.00;98.40
16412;DHT22;8315;52.104;6.304;2022-11-15T09:20:37;12.10;98.40
16412;DHT22;8315;52.104;6.304;2022-11-15T09:23:23;12.00;98.40
16412;DHT22;8315;52.104;6.304;2022-11-15T09:26:09;12.00;98.40
16412;DHT22;8315;52.104;6.304;2022-11-15T09:28:56;12.00;98.40
16412;DHT22;8315;52.104;6.304;2022-11-15T09:31:41;12.00;98.40
16412;DHT22;8315;52.104;6.304;2022-11-15T09:34:27;12.10;98.40
16412;DHT22;8315;52.104;6.304;2022-11-15T09:37:12;12.10;98.40
16412;DHT22;8315;52.104;6.304;2022-11-15T09:39:58;12.10;98.40
16412;DHT22;8315;52.104;6.304;2022-11-15T09:42:53;12.00;98.40
16412;DHT22;8315;52.104;6.304;2022-11-15T09:45:50;12.00;98.40
16412;DHT22;8315;52.104;6.304;2022-11-15T09:48:48;12.10;98.40
16412;DHT22;8315;52.104;6.304;2022-11-15T09:51:36;12.10;98.40
16412;DHT22;8315;52.104;6.304;2022-11-15T09:54:13;12.10;98.40
16412;DHT22;8315;52.104;6.304;2022-11-15T09:56:46;12.00;98.40
16412;DHT22;8315;52.104;6.304;2022-11-15T09:59:17;12.10;98.40
16412;DHT22;8315;52.104;6.304;2022-11-15T10:01:53;12.20;98.40
16412;DHT22;8315;52.104;6.304;2022-11-15T10:04:23;12.20;98.40
16412;DHT22;8315;52.104;6.304;2022-11-15T10:06:52;12.20;98.40
16412;DHT22;8315;52.104;6.304;2022-11-15T10:09:23;12.20;98.40
16412;DHT22;8315;52.104;6.304;2022-11-15T10:11:52;12.30;98.40
16412;DHT22;8315;52.104;6.304;2022-11-15T10:14:20;12.30;98.40
16412;DHT22;8315;52.104;6.304;2022-11-15T10:16:57;12.40;98.40
16412;DHT22;8315;52.104;6.304;2022-11-15T10:19:32;12.40;98.40
16412;DHT22;8315;52.104;6.304;2022-11-15T10:22:05;12.40;98.40
16412;DHT22;8315;52.104;6.304;2022-11-15T10:24:44;12.30;98.40
16412;DHT22;8315;52.104;6.304;2022-11-15T10:27:13;12.30;98.40
16412;DHT22;8315;52.104;6.304;2022-11-15T10:29:42;12.40;98.40
16412;DHT22;8315;52.104;6.304;2022-11-15T10:32:11;12.50;98.40
16412;DHT22;8315;52.104;6.304;2022-11-15T10:34:39;12.50;98.40
16412;DHT22;8315;52.104;6.304;2022-11-15T10:37:05;12.60;98.40
16412;DHT22;8315;52.104;6.304;2022-11-15T10:39:32;12.70;98.40
16412;DHT22;8315;52.104;6.304;2022-11-15T10:42:14;12.80;98.40
16412;DHT22;8315;52.104;6.304;2022-11-15T10:44:43;12.80;98.40
16412;DHT22;8315;52.104;6.304;2022-11-15T10:47:22;12.80;98.40
16412;DHT22;8315;52.104;6.304;2022-11-15T10:49:54;12.80;98.40
16412;DHT22;8315;52.104;6.304;2022-11-15T10:52:23;12.80;98.40
16412;DHT22;8315;52.104;6.304;2022-11-15T10:54:52;12.70;98.40
16412;DHT22;8315;52.104;6.304;2022-11-15T10:57:22;12.70;98.40
16412;DHT22;8315;52.104;6.304;2022-11-15T10:59:51;12.60;98.40
16412;DHT22;8315;52.104;6.304;2022-11-15T11:02:34;12.70;98.40
16412;DHT22;8315;52.104;6.304;2022-11-15T11:05:02;12.80;98.40
16412;DHT22;8315;52.104;6.304;2022-11-15T11:07:30;12.80;98.40
16412;DHT22;8315;52.104;6.304;2022-11-15T11:09:59;12.90;98.40
16412;DHT22;8315;52.104;6.304;2022-11-15T11:12:28;12.90;98.40
16412;DHT22;8315;52.104;6.304;2022-11-15T11:14:57;13.00;98.40
16412;DHT22;8315;52.104;6.304;2022-11-15T11:17:27;12.90;98.40
16412;DHT22;8315;52.104;6.304;2022-11-15T11:20:02;12.90;98.40
16412;DHT22;8315;52.104;6.304;2022-11-15T11:22:34;13.00;98.40
16412;DHT22;8315;52.104;6.304;2022-11-15T11:25:13;13.20;98.40
16412;DHT22;8315;52.104;6.304;2022-11-15T11:27:47;13.30;98.40
16412;DHT22;8315;52.104;6.304;2022-11-15T11:30:24;13.30;98.40
16412;DHT22;8315;52.104;6.304;2022-11-15T11:33:12;13.20;98.40
16412;DHT22;8315;52.104;6.304;2022-11-15T11:35:45;13.10;98.40
16412;DHT22;8315;52.104;6.304;2022-11-15T11:38:19;13.10;98.40
16412;DHT22;8315;52.104;6.304;2022-11-15T11:40:59;13.10;98.40
16412;DHT22;8315;52.104;6.304;2022-11-15T11:43:34;13.30;98.40
16412;DHT22;8315;52.104;6.304;2022-11-15T11:46:09;13.20;98.40
16412;DHT22;8315;52.104;6.304;2022-11-15T11:48:43;13.30;98.40
16412;DHT22;8315;52.104;6.304;2022-11-15T11:51:13;13.40;98.40
16412;DHT22;8315;52.104;6.304;2022-11-15T11:53:45;13.40;98.40
16412;DHT22;8315;52.104;6.304;2022-11-15T11:56:17;13.30;98.40
16412;DHT22;8315;52.104;6.304;2022-11-15T11:58:48;13.30;98.40
16412;DHT22;8315;52.104;6.304;2022-11-15T12:01:17;13.40;98.40
16412;DHT22;8315;52.104;6.304;2022-11-15T12:03:50;13.50;98.40
16412;DHT22;8315;52.104;6.304;2022-11-15T12:06:21;13.60;98.40
16412;DHT22;8315;52.104;6.304;2022-11-15T12:08:50;13.80;98.40
16412;DHT22;8315;52.104;6.304;2022-11-15T12:11:20;13.80;98.40
16412;DHT22;8315;52.104;6.304;2022-11-15T12:13:49;14.00;98.40
16412;DHT22;8315;52.104;6.304;2022-11-15T12:16:20;14.10;98.40
16412;DHT22;8315;52.104;6.304;2022-11-15T12:18:50;14.10;98.40
16412;DHT22;8315;52.104;6.304;2022-11-15T12:21:20;13.90;98.40
16412;DHT22;8315;52.104;6.304;2022-11-15T12:23:50;14.00;98.40
16412;DHT22;8315;52.104;6.304;2022-11-15T12:26:20;14.10;98.40
16412;DHT22;8315;52.104;6.304;2022-11-15T12:28:50;14.20;98.40
16412;DHT22;8315;52.104;6.304;2022-11-15T12:31:21;14.00;98.40
16412;DHT22;8315;52.104;6.304;2022-11-15T12:33:54;14.00;98.40
16412;DHT22;8315;52.104;6.304;2022-11-15T12:36:30;14.00;98.40
16412;DHT22;8315;52.104;6.304;2022-11-15T12:39:01;14.20;98.40
16412;DHT22;8315;52.104;6.304;2022-11-15T12:41:29;14.40;98.40
16412;DHT22;8315;52.104;6.304;2022-11-15T12:43:57;14.70;98.40
16412;DHT22;8315;52.104;6.304;2022-11-15T12:52:11;14.90;98.40
16412;DHT22;8315;52.104;6.304;2022-11-15T12:57:32;14.90;98.40
16412;DHT22;8315;52.104;6.304;2022-11-15T13:03:17;14.90;98.40
16412;DHT22;8315;52.104;6.304;2022-11-15T13:06:09;14.80;98.40
16412;DHT22;8315;52.104;6.304;2022-11-15T13:08:57;14.90;98.40
16412;DHT22;8315;52.104;6.304;2022-11-15T13:14:34;15.00;98.40
16412;DHT22;8315;52.104;6.304;2022-11-15T13:17:12;15.10;98.40
16412;DHT22;8315;52.104;6.304;2022-11-15T13:19:48;15.30;98.40
16412;DHT22;8315;52.104;6.304;2022-11-15T13:22:17;15.40;98.40
16412;DHT22;8315;52.104;6.304;2022-11-15T13:25:02;15.30;98.40
16412;DHT22;8315;52.104;6.304;2022-11-15T13:27:30;15.30;98.40
16412;DHT22;8315;52.104;6.304;2022-11-15T13:29:57;15.40;98.40
16412;DHT22;8315;52.104;6.304;2022-11-15T13:32:24;15.50;98.40
16412;DHT22;8315;52.104;6.304;2022-11-15T13:34:51;15.40;98.40
16412;DHT22;8315;52.104;6.304;2022-11-15T13:37:31;15.50;98.40
16412;DHT22;8315;52.104;6.304;2022-11-15T13:43:02;15.20;98.40
16412;DHT22;8315;52.104;6.304;2022-11-15T13:45:44;15.20;98.40
16412;DHT22;8315;52.104;6.304;2022-11-15T13:48:10;15.20;98.40
16412;DHT22;8315;52.104;6.304;2022-11-15T13:50:37;15.10;98.40
16412;DHT22;8315;52.104;6.304;2022-11-15T13:53:08;15.00;98.40
16412;DHT22;8315;52.104;6.304;2022-11-15T13:55:36;15.00;98.40
16412;DHT22;8315;52.104;6.304;2022-11-15T13:58:03;15.00;98.40
16412;DHT22;8315;52.104;6.304;2022-11-15T14:00:35;15.00;98.40
16412;DHT22;8315;52.104;6.304;2022-11-15T14:03:05;14.90;98.40
16412;DHT22;8315;52.104;6.304;2022-11-15T14:05:39;14.80;98.40
16412;DHT22;8315;52.104;6.304;2022-11-15T14:08:13;14.60;98.40
16412;DHT22;8315;52.104;6.304;2022-11-15T14:10:48;14.50;98.40
16412;DHT22;8315;52.104;6.304;2022-11-15T14:13:32;14.40;98.40
16412;DHT22;8315;52.104;6.304;2022-11-15T14:16:11;14.50;98.40
16412;DHT22;8315;52.104;6.304;2022-11-15T14:18:40;14.40;98.40
16412;DHT22;8315;52.104;6.304;2022-11-15T14:21:09;14.40;98.40
16412;DHT22;8315;52.104;6.304;2022-11-15T14:23:37;14.50;98.40
16412;DHT22;8315;52.104;6.304;2022-11-15T14:26:04;14.40;98.40
16412;DHT22;8315;52.104;6.304;2022-11-15T14:28:32;14.30;98.40
16412;DHT22;8315;52.104;6.304;2022-11-15T14:31:02;14.10;98.40
16412;DHT22;8315;52.104;6.304;2022-11-15T14:33:34;14.20;98.40
16412;DHT22;8315;52.104;6.304;2022-11-15T14:36:03;14.10;98.40
16412;DHT22;8315;52.104;6.304;2022-11-15T14:38:31;14.00;98.40
16412;DHT22;8315;52.104;6.304;2022-11-15T14:40:59;14.10;98.40
16412;DHT22;8315;52.104;6.304;2022-11-15T14:43:26;13.90;98.40
16412;DHT22;8315;52.104;6.304;2022-11-15T14:45:52;13.80;98.40
16412;DHT22;8315;52.104;6.304;2022-11-15T14:48:19;13.70;98.40
16412;DHT22;8315;52.104;6.304;2022-11-15T14:50:47;13.70;98.40
16412;DHT22;8315;52.104;6.304;2022-11-15T14:53:14;13.60;98.40
16412;DHT22;8315;52.104;6.304;2022-11-15T14:55:42;13.50;98.40
16412;DHT22;8315;52.104;6.304;2022-11-15T14:58:11;13.50;98.40
16412;DHT22;8315;52.104;6.304;2022-11-15T15:00:38;13.40;98.40
16412;DHT22;8315;52.104;6.304;2022-11-15T15:03:05;13.40;98.40
16412;DHT22;8315;52.104;6.304;2022-11-15T15:05:33;13.30;98.40
16412;DHT22;8315;52.104;6.304;2022-11-15T15:08:01;13.30;98.40
16412;DHT22;8315;52.104;6.304;2022-11-15T15:10:30;13.30;98.40
16412;DHT22;8315;52.104;6.304;2022-11-15T15:12:57;13.20;98.40
16412;DHT22;8315;52.104;6.304;2022-11-15T15:15:26;13.10;98.40
16412;DHT22;8315;52.104;6.304;2022-11-15T15:17:57;13.00;98.40
16412;DHT22;8315;52.104;6.304;2022-11-15T15:20:24;13.00;98.40
16412;DHT22;8315;52.104;6.304;2022-11-15T15:22:51;13.00;98.40
16412;DHT22;8315;52.104;6.304;2022-11-15T15:25:21;13.00;98.40
16412;DHT22;8315;52.104;6.304;2022-11-15T15:27:49;12.90;98.40
16412;DHT22;8315;52.104;6.304;2022-11-15T15:30:16;12.90;98.40
16412;DHT22;8315;52.104;6.304;2022-11-15T15:32:44;13.00;98.40
16412;DHT22;8315;52.104;6.304;2022-11-15T15:35:12;12.90;98.40
16412;DHT22;8315;52.104;6.304;2022-11-15T15:37:39;12.90;98.40
16412;DHT22;8315;52.104;6.304;2022-11-15T15:40:10;12.90;98.40
16412;DHT22;8315;52.104;6.304;2022-11-15T15:42:41;12.90;98.40
16412;DHT22;8315;52.104;6.304;2022-11-15T15:45:08;12.90;98.40
16412;DHT22;8315;52.104;6.304;2022-11-15T15:47:35;12.80;98.40
16412;DHT22;8315;52.104;6.304;2022-11-15T15:50:04;12.80;98.40
16412;DHT22;8315;52.104;6.304;2022-11-15T15:52:43;12.80;98.40
16412;DHT22;8315;52.104;6.304;2022-11-15T15:55:10;12.80;98.40
16412;DHT22;8315;52.104;6.304;2022-11-15T15:57:37;12.70;98.40
16412;DHT22;8315;52.104;6.304;2022-11-15T16:00:04;12.80;98.40
16412;DHT22;8315;52.104;6.304;2022-11-15T16:02:37;12.80;98.40
16412;DHT22;8315;52.104;6.304;2022-11-15T16:05:06;12.70;98.40
16412;DHT22;8315;52.104;6.304;2022-11-15T16:07:33;12.70;98.40
16412;DHT22;8315;52.104;6.304;2022-11-15T16:10:00;12.70;98.40
16412;DHT22;8315;52.104;6.304;2022-11-15T16:12:28;12.70;98.40
16412;DHT22;8315;52.104;6.304;2022-11-15T16:14:55;12.60;98.40
16412;DHT22;8315;52.104;6.304;2022-11-15T16:17:23;12.70;98.40
16412;DHT22;8315;52.104;6.304;2022-11-15T16:19:52;12.70;98.40
16412;DHT22;8315;52.104;6.304;2022-11-15T16:22:20;12.80;98.40
16412;DHT22;8315;52.104;6.304;2022-11-15T16:24:46;12.80;98.40
16412;DHT22;8315;52.104;6.304;2022-11-15T16:27:14;12.80;98.40
16412;DHT22;8315;52.104;6.304;2022-11-15T16:29:41;12.80;98.40
16412;DHT22;8315;52.104;6.304;2022-11-15T16:32:08;12.80;98.40
16412;DHT22;8315;52.104;6.304;2022-11-15T16:34:35;12.70;98.40
16412;DHT22;8315;52.104;6.304;2022-11-15T16:37:02;12.70;98.40
16412;DHT22;8315;52.104;6.304;2022-11-15T16:39:30;12.70;98.40
16412;DHT22;8315;52.104;6.304;2022-11-15T16:41:57;12.70;98.40
16412;DHT22;8315;52.104;6.304;2022-11-15T16:44:25;12.60;98.40
16412;DHT22;8315;52.104;6.304;2022-11-15T16:46:52;12.70;98.40
16412;DHT22;8315;52.104;6.304;2022-11-15T16:49:19;12.60;98.40
16412;DHT22;8315;52.104;6.304;2022-11-15T16:51:48;12.70;98.40
16412;DHT22;8315;52.104;6.304;2022-11-15T16:54:15;12.70;98.40
16412;DHT22;8315;52.104;6.304;2022-11-15T16:56:43;12.70;98.40
16412;DHT22;8315;52.104;6.304;2022-11-15T16:59:13;12.70;98.40
16412;DHT22;8315;52.104;6.304;2022-11-15T17:01:42;12.70;98.40
16412;DHT22;8315;52.104;6.304;2022-11-15T17:04:15;12.70;98.40
16412;DHT22;8315;52.104;6.304;2022-11-15T17:06:43;12.80;98.40
16412;DHT22;8315;52.104;6.304;2022-11-15T17:09:12;12.70;98.40
16412;DHT22;8315;52.104;6.304;2022-11-15T17:11:40;12.80;98.40
16412;DHT22;8315;52.104;6.304;2022-11-15T17:14:09;12.80;98.40
16412;DHT22;8315;52.104;6.304;2022-11-15T17:16:36;12.80;98.40
16412;DHT22;8315;52.104;6.304;2022-11-15T17:19:10;12.80;98.40
16412;DHT22;8315;52.104;6.304;2022-11-15T17:21:39;12.80;98.40
16412;DHT22;8315;52.104;6.304;2022-11-15T17:24:06;12.90;98.40
16412;DHT22;8315;52.104;6.304;2022-11-15T17:26:33;12.90;98.40
16412;DHT22;8315;52.104;6.304;2022-11-15T17:29:00;12.90;98.40